createdAt,value
2022-10-19T00:00:29.976Z,14.91
2022-10-19T00:02:56.450Z,14.90
2022-10-19T00:05:22.861Z,14.89
2022-10-19T00:07:49.292Z,14.87
2022-10-19T00:10:15.866Z,14.83
2022-10-19T00:12:42.374Z,14.75
2022-10-19T00:15:09.227Z,14.69
2022-10-19T00:17:35.927Z,14.63
2022-10-19T00:20:02.455Z,14.61
2022-10-19T00:22:28.853Z,14.59
2022-10-19T00:24:56.893Z,14.55
2022-10-19T00:27:23.291Z,14.54
2022-10-19T00:29:49.702Z,14.48
2022-10-19T00:32:16.084Z,14.48
2022-10-19T00:34:42.512Z,14.46
2022-10-19T00:37:08.943Z,14.49
2022-10-19T00:39:35.348Z,14.44
2022-10-19T00:42:01.763Z,14.43
2022-10-19T00:44:30.895Z,14.42
2022-10-19T00:47:02.145Z,14.42
2022-10-19T00:49:31.028Z,14.43
2022-10-19T00:52:02.079Z,14.43
2022-10-19T00:54:31.605Z,14.43
2022-10-19T00:56:58.937Z,14.37
2022-10-19T00:59:27.058Z,14.37
2022-10-19T01:01:54.307Z,14.34
2022-10-19T01:04:22.091Z,14.34
2022-10-19T01:06:48.568Z,14.31
2022-10-19T01:09:15.024Z,14.28
2022-10-19T01:12:03.789Z,14.29
2022-10-19T01:14:48.194Z,14.30
2022-10-19T01:17:29.680Z,14.29
2022-10-19T01:20:03.195Z,14.30
2022-10-19T01:23:00.340Z,14.26
2022-10-19T01:25:42.259Z,14.22
2022-10-19T01:28:18.266Z,14.21
2022-10-19T01:30:59.104Z,14.16
2022-10-19T01:33:54.021Z,14.16
2022-10-19T01:36:31.889Z,14.15
2022-10-19T01:39:17.591Z,14.16
2022-10-19T01:42:02.146Z,14.17
2022-10-19T01:44:39.556Z,14.19
2022-10-19T01:47:10.241Z,14.20
2022-10-19T01:50:03.450Z,14.20
2022-10-19T01:52:30.933Z,14.19
2022-10-19T01:55:00.657Z,14.19
2022-10-19T01:57:31.665Z,14.20
2022-10-19T01:59:58.251Z,14.22
2022-10-19T02:02:28.045Z,14.25
2022-10-19T02:04:56.894Z,14.25
2022-10-19T02:07:24.628Z,14.26
2022-10-19T02:09:51.033Z,14.30
2022-10-19T02:12:17.910Z,14.33
2022-10-19T02:14:47.846Z,14.35
2022-10-19T02:17:21.095Z,14.36
2022-10-19T02:19:47.500Z,14.36
2022-10-19T02:22:13.999Z,14.37
2022-10-19T02:24:40.540Z,14.41
2022-10-19T02:27:07.895Z,14.40
2022-10-19T02:29:34.532Z,14.39
2022-10-19T02:32:01.531Z,14.37
2022-10-19T02:34:28.048Z,14.36
2022-10-19T02:36:54.847Z,14.42
2022-10-19T02:39:21.596Z,14.43
2022-10-19T02:42:10.535Z,14.48
2022-10-19T02:44:43.771Z,14.49
2022-10-19T02:47:30.211Z,14.48
2022-10-19T02:49:56.692Z,14.47
2022-10-19T02:52:23.128Z,14.41
2022-10-19T02:54:49.536Z,14.37
2022-10-19T02:57:18.728Z,14.35
2022-10-19T02:59:45.225Z,14.34
2022-10-19T03:02:12.217Z,14.34
2022-10-19T03:04:38.838Z,14.33
2022-10-19T03:07:05.368Z,14.29
2022-10-19T03:09:31.760Z,14.34
2022-10-19T03:11:58.368Z,14.34
2022-10-19T03:14:24.784Z,14.36
2022-10-19T03:16:51.204Z,14.34
2022-10-19T03:19:17.697Z,14.35
2022-10-19T03:21:44.086Z,14.37
2022-10-19T03:24:10.490Z,14.37
2022-10-19T03:26:37.294Z,14.39
2022-10-19T03:29:04.091Z,14.37
2022-10-19T03:31:30.547Z,14.35
2022-10-19T03:33:56.936Z,14.34
2022-10-19T03:36:25.631Z,14.35
2022-10-19T03:38:53.509Z,14.35
2022-10-19T03:41:21.250Z,14.36
2022-10-19T03:43:47.654Z,14.34
2022-10-19T03:46:14.135Z,14.33
2022-10-19T03:48:40.566Z,14.33
2022-10-19T03:51:09.600Z,14.33
2022-10-19T03:53:36.842Z,14.34
2022-10-19T03:56:05.764Z,14.33
2022-10-19T03:58:34.105Z,14.32
2022-10-19T04:01:00.725Z,14.34
2022-10-19T04:03:27.542Z,14.35
2022-10-19T04:06:11.553Z,14.32
2022-10-19T04:08:38.003Z,14.28
2022-10-19T04:11:06.899Z,14.24
2022-10-19T04:13:34.274Z,14.20
2022-10-19T04:16:00.892Z,14.20
2022-10-19T04:18:27.549Z,14.22
2022-10-19T04:21:03.031Z,14.20
2022-10-19T04:23:31.192Z,14.17
2022-10-19T04:26:06.336Z,14.16
2022-10-19T04:28:33.743Z,14.13
2022-10-19T04:31:07.047Z,14.14
2022-10-19T04:33:34.522Z,14.13
2022-10-19T04:36:02.158Z,14.11
2022-10-19T04:38:29.102Z,14.08
2022-10-19T04:40:56.143Z,14.08
2022-10-19T04:43:22.815Z,14.02
2022-10-19T04:45:49.212Z,14.05
2022-10-19T04:48:15.592Z,14.07
2022-10-19T04:50:42.017Z,14.02
2022-10-19T04:53:08.433Z,14.01
2022-10-19T04:55:34.870Z,14.00
2022-10-19T04:58:01.260Z,13.99
2022-10-19T05:00:27.716Z,14.01
2022-10-19T05:02:54.211Z,14.00
2022-10-19T05:05:20.661Z,14.05
2022-10-19T05:07:48.870Z,14.05
2022-10-19T05:10:15.301Z,14.07
2022-10-19T05:12:41.706Z,14.06
2022-10-19T05:15:08.730Z,14.03
2022-10-19T05:17:35.549Z,14.02
2022-10-19T05:20:02.373Z,14.03
2022-10-19T05:22:28.815Z,14.06
2022-10-19T05:24:58.077Z,14.06
2022-10-19T05:27:24.844Z,14.11
2022-10-19T05:29:51.212Z,14.15
2022-10-19T05:32:17.641Z,14.12
2022-10-19T05:34:44.068Z,14.03
2022-10-19T05:37:10.444Z,13.98
2022-10-19T05:39:36.853Z,13.97
2022-10-19T05:42:03.416Z,13.96
2022-10-19T05:44:29.841Z,13.96
2022-10-19T05:46:56.316Z,13.97
2022-10-19T05:49:22.761Z,13.99
2022-10-19T05:51:49.608Z,14.03
2022-10-19T05:54:16.395Z,14.01
2022-10-19T05:56:43.053Z,14.01
2022-10-19T05:59:13.972Z,14.02
2022-10-19T06:01:40.488Z,14.03
2022-10-19T06:04:07.520Z,14.04
2022-10-19T06:06:34.089Z,14.08
2022-10-19T06:09:00.946Z,14.09
2022-10-19T06:11:29.591Z,14.11
2022-10-19T06:13:58.127Z,14.11
2022-10-19T06:16:25.937Z,14.13
2022-10-19T06:18:53.155Z,14.14
2022-10-19T06:21:21.725Z,14.20
2022-10-19T06:23:52.777Z,14.20
2022-10-19T06:26:20.429Z,14.22
2022-10-19T06:28:47.504Z,14.20
2022-10-19T06:31:14.752Z,14.21
2022-10-19T06:33:43.175Z,14.21
2022-10-19T06:36:19.344Z,14.21
2022-10-19T06:38:46.058Z,14.21
2022-10-19T06:41:12.988Z,14.21
2022-10-19T06:43:39.599Z,14.22
2022-10-19T06:46:15.406Z,14.22
2022-10-19T06:48:42.365Z,14.25
2022-10-19T06:51:08.733Z,14.23
2022-10-19T06:53:36.166Z,14.20
2022-10-19T06:56:05.204Z,14.18
2022-10-19T06:58:35.368Z,14.17
2022-10-19T07:01:02.317Z,14.19
2022-10-19T07:03:30.552Z,14.18
2022-10-19T07:05:59.456Z,14.20
2022-10-19T07:08:27.344Z,14.20
2022-10-19T07:10:58.024Z,14.15
2022-10-19T07:13:25.341Z,14.12
2022-10-19T07:15:57.565Z,14.08
2022-10-19T07:18:24.340Z,14.02
2022-10-19T07:20:57.504Z,14.01
2022-10-19T07:23:25.155Z,13.97
2022-10-19T07:25:53.455Z,14.00
2022-10-19T07:28:21.417Z,14.02
2022-10-19T07:30:47.922Z,14.06
2022-10-19T07:33:14.411Z,14.03
2022-10-19T07:35:40.959Z,14.00
2022-10-19T07:38:08.448Z,13.99
2022-10-19T07:40:35.423Z,13.99
2022-10-19T07:43:02.004Z,13.93
2022-10-19T07:45:29.968Z,13.95
2022-10-19T07:47:56.638Z,13.98
2022-10-19T07:50:24.594Z,14.01
2022-10-19T07:52:52.134Z,14.01
2022-10-19T07:55:19.292Z,13.98
2022-10-19T07:57:49.539Z,13.94
2022-10-19T08:00:16.778Z,13.95
2022-10-19T08:02:59.829Z,13.92
2022-10-19T08:05:32.699Z,13.92
2022-10-19T08:07:59.128Z,13.89
2022-10-19T08:10:25.540Z,13.89
2022-10-19T08:12:51.919Z,13.88
2022-10-19T08:15:18.491Z,13.87
2022-10-19T08:17:44.938Z,13.90
2022-10-19T08:20:11.333Z,13.92
2022-10-19T08:22:37.858Z,13.93
2022-10-19T08:25:04.543Z,13.96
2022-10-19T08:27:30.995Z,13.97
2022-10-19T08:29:57.447Z,13.95
2022-10-19T08:32:23.871Z,13.94
2022-10-19T08:34:50.232Z,13.92
2022-10-19T08:37:32.591Z,13.96
2022-10-19T08:40:03.486Z,13.98
2022-10-19T08:42:59.368Z,13.95
2022-10-19T08:45:31.027Z,13.92
2022-10-19T08:48:00.888Z,13.95
2022-10-19T08:50:39.352Z,13.97
2022-10-19T08:53:48.805Z,13.92
2022-10-19T08:56:49.254Z,13.92
2022-10-19T08:59:22.065Z,13.91
2022-10-19T09:02:08.441Z,13.91
2022-10-19T09:04:45.130Z,13.96
2022-10-19T09:07:29.572Z,13.98
2022-10-19T09:09:59.899Z,13.99
2022-10-19T09:12:43.305Z,14.02
2022-10-19T09:15:20.879Z,14.01
2022-10-19T09:17:47.496Z,14.05
2022-10-19T09:20:22.921Z,14.09
2022-10-19T09:23:00.032Z,14.15
2022-10-19T09:25:27.171Z,14.23
2022-10-19T09:28:04.336Z,14.23
2022-10-19T09:30:33.896Z,14.26
2022-10-19T09:33:01.334Z,14.26
2022-10-19T09:35:33.572Z,14.25
2022-10-19T09:38:00.404Z,14.20
2022-10-19T09:40:28.924Z,14.23
2022-10-19T09:42:59.321Z,14.24
2022-10-19T09:45:46.788Z,14.25
2022-10-19T09:48:38.132Z,14.28
2022-10-19T09:51:11.849Z,14.32
2022-10-19T09:53:38.374Z,14.36
2022-10-19T09:56:07.590Z,14.37
2022-10-19T09:58:34.890Z,14.39
2022-10-19T10:01:02.352Z,14.46
2022-10-19T10:03:30.383Z,14.53
2022-10-19T10:05:59.303Z,14.63
2022-10-19T10:08:31.280Z,14.71
2022-10-19T10:11:27.676Z,14.82
2022-10-19T10:13:55.258Z,14.91
2022-10-19T10:16:23.672Z,14.94
2022-10-19T10:18:51.565Z,14.94
2022-10-19T10:21:47.264Z,14.96
2022-10-19T10:24:13.543Z,15.04
2022-10-19T10:26:42.319Z,15.05
2022-10-19T10:29:25.397Z,15.13
2022-10-19T10:31:55.144Z,15.20
2022-10-19T10:37:28.676Z,15.33
2022-10-19T10:39:59.194Z,15.40
2022-10-19T10:42:37.416Z,15.45
2022-10-19T10:45:04.820Z,15.52
2022-10-19T10:47:31.438Z,15.57
2022-10-19T10:50:01.158Z,15.67
2022-10-19T10:52:31.252Z,15.66
2022-10-19T10:55:04.286Z,15.66
2022-10-19T10:57:34.336Z,15.71
2022-10-19T11:00:14.586Z,15.80
2022-10-19T11:03:15.608Z,15.89
2022-10-19T11:05:45.269Z,15.83
2022-10-19T11:08:49.301Z,15.79
2022-10-19T11:11:22.845Z,15.78
2022-10-19T11:14:30.027Z,15.76
2022-10-19T11:16:59.860Z,15.69
2022-10-19T11:19:30.728Z,15.67
2022-10-19T11:22:15.597Z,15.63
2022-10-19T11:24:53.984Z,15.65
2022-10-19T11:27:58.781Z,15.64
2022-10-19T11:30:25.871Z,15.60
2022-10-19T11:33:07.584Z,15.67
2022-10-19T11:35:56.826Z,15.70
2022-10-19T11:38:35.215Z,15.66
2022-10-19T11:41:20.042Z,15.66
2022-10-19T11:43:49.495Z,15.76
2022-10-19T11:46:21.859Z,15.81
2022-10-19T11:49:19.383Z,15.80
2022-10-19T11:51:57.286Z,15.82
2022-10-19T11:54:43.914Z,15.73
2022-10-19T11:57:15.235Z,15.71
2022-10-19T12:00:15.007Z,15.64
2022-10-19T12:02:47.843Z,15.68
2022-10-19T12:05:31.721Z,15.73
2022-10-19T12:08:21.293Z,15.79
2022-10-19T12:11:27.574Z,15.72
2022-10-19T12:14:00.573Z,15.72
2022-10-19T12:16:35.958Z,15.79
2022-10-19T12:19:03.290Z,15.79
2022-10-19T12:21:43.423Z,15.82
2022-10-19T12:24:16.461Z,15.84
2022-10-19T12:26:43.728Z,15.81
2022-10-19T12:29:21.917Z,15.80
2022-10-19T12:31:48.988Z,15.71
2022-10-19T12:34:43.039Z,15.71
2022-10-19T12:37:18.626Z,15.67
2022-10-19T12:40:04.391Z,15.71
2022-10-19T12:42:57.067Z,15.80
2022-10-19T12:45:42.212Z,15.86
2022-10-19T12:48:08.943Z,15.89
2022-10-19T12:50:51.388Z,15.97
2022-10-19T12:56:11.818Z,16.15
2022-10-19T12:58:46.778Z,16.15
2022-10-19T13:01:44.109Z,16.13
2022-10-19T13:04:21.988Z,16.13
2022-10-19T13:06:51.015Z,16.09
2022-10-19T13:09:42.127Z,15.99
2022-10-19T13:12:21.722Z,15.99
2022-10-19T13:15:01.012Z,15.97
2022-10-19T13:17:36.993Z,15.98
2022-10-19T13:20:15.580Z,15.99
2022-10-19T13:23:01.476Z,16.02
2022-10-19T13:25:35.161Z,16.02
2022-10-19T13:28:07.681Z,15.90
2022-10-19T13:30:38.032Z,15.83
2022-10-19T13:33:25.789Z,15.89
2022-10-19T13:35:58.245Z,15.81
2022-10-19T13:38:32.598Z,15.72
2022-10-19T13:41:27.719Z,15.68
2022-10-19T13:44:03.263Z,15.66
2022-10-19T13:46:29.542Z,15.78
2022-10-19T13:49:06.066Z,15.94
2022-10-19T13:51:55.005Z,16.07
2022-10-19T13:54:36.332Z,16.23
2022-10-19T13:57:21.226Z,16.31
2022-10-19T14:00:23.332Z,16.32
2022-10-19T14:02:58.346Z,16.31
2022-10-19T14:05:46.063Z,16.30
2022-10-19T14:08:44.838Z,16.30
2022-10-19T14:11:19.268Z,16.14
2022-10-19T14:13:46.645Z,15.97
2022-10-19T14:16:20.743Z,15.85
2022-10-19T14:18:56.863Z,15.83
2022-10-19T14:21:31.840Z,15.79
2022-10-19T14:23:58.905Z,15.81
2022-10-19T14:26:29.880Z,15.78
2022-10-19T14:28:57.818Z,15.77
2022-10-19T14:31:30.881Z,15.81
2022-10-19T14:34:00.967Z,15.82
2022-10-19T14:36:32.323Z,15.84
2022-10-19T14:38:59.283Z,15.82
2022-10-19T14:41:28.865Z,15.84
2022-10-19T14:43:59.885Z,15.75
2022-10-19T14:46:31.115Z,15.63
2022-10-19T14:49:02.640Z,15.50
2022-10-19T14:51:45.480Z,15.39
2022-10-19T14:54:15.312Z,15.36
2022-10-19T14:56:55.599Z,15.31
2022-10-19T14:59:35.328Z,15.29
2022-10-19T15:02:05.393Z,15.28
2022-10-19T15:04:34.504Z,15.26
2022-10-19T15:07:03.783Z,15.25
2022-10-19T15:09:37.497Z,15.26
2022-10-19T15:12:15.755Z,15.19
2022-10-19T15:14:42.476Z,15.18
2022-10-19T15:17:26.779Z,15.10
2022-10-19T15:19:55.933Z,15.06
2022-10-19T15:22:35.432Z,15.10
2022-10-19T15:25:07.817Z,15.03
2022-10-19T15:27:38.581Z,15.04
2022-10-19T15:30:22.215Z,15.04
2022-10-19T15:32:55.102Z,15.02
2022-10-19T15:35:27.477Z,14.95
2022-10-19T15:38:00.685Z,14.90
2022-10-19T15:40:33.410Z,14.90
2022-10-19T15:43:00.238Z,14.89
2022-10-19T15:45:31.659Z,14.82
2022-10-19T15:48:12.085Z,14.72
2022-10-19T15:50:48.203Z,14.66
2022-10-19T15:53:18.566Z,14.56
2022-10-19T15:55:45.265Z,14.54
2022-10-19T15:58:12.701Z,14.42
2022-10-19T16:00:40.247Z,14.40
2022-10-19T16:03:06.732Z,14.40
2022-10-19T16:05:35.242Z,14.37
2022-10-19T16:08:01.664Z,14.31
2022-10-19T16:10:28.449Z,14.24
2022-10-19T16:12:54.832Z,14.21
2022-10-19T16:15:23.032Z,14.12
2022-10-19T16:17:51.523Z,14.05
2022-10-19T16:20:17.987Z,13.96
2022-10-19T16:22:44.671Z,13.89
2022-10-19T16:25:11.635Z,13.84
2022-10-19T16:27:38.327Z,13.80
2022-10-19T16:30:05.593Z,13.79
2022-10-19T16:32:32.198Z,13.78
2022-10-19T16:34:58.610Z,13.71
2022-10-19T16:37:25.244Z,13.68
2022-10-19T16:39:51.660Z,13.65
2022-10-19T16:42:18.051Z,13.61
2022-10-19T16:44:44.563Z,13.63
2022-10-19T16:47:10.948Z,13.58
2022-10-19T16:49:37.572Z,13.55
2022-10-19T17:05:32.151Z,13.33
2022-10-19T17:08:06.415Z,13.24
2022-10-19T17:10:39.478Z,13.19
2022-10-19T17:13:06.108Z,13.14
2022-10-19T17:15:42.965Z,13.13
2022-10-19T17:18:09.832Z,13.11
